Time;durP1;ratioP1;P1;durP2;ratioP2;P2;SDS_P1;SDS_P2;PMS_P1;PMS_P2;Temp;Humidity;BMP_temperature;BMP_pressure;BME280_temperature;BME280_humidity;BME280_pressure;Samples;Min_cycle;Max_cycle;Signal;HPM_P1;HPM_P2
2022/04/09 00:00:40;;;;;;;12.37;2.57;;;6.30;99.90;;;;;;5026712;28;20715;-80
2022/04/09 00:03:06;;;;;;;15.53;3.00;;;6.30;99.90;;;;;;5027499;28;20210;-80
2022/04/09 00:05:33;;;;;;;19.60;3.80;;;6.40;99.90;;;;;;5026887;28;20215;-79
2022/04/09 00:08:01;;;;;;;14.83;2.83;;;6.50;99.90;;;;;;5027091;28;20230;-80
2022/04/09 00:10:28;;;;;;;16.10;3.93;;;6.50;99.90;;;;;;5028294;28;20502;-81
2022/04/09 00:12:55;;;;;;;15.57;2.73;;;6.60;99.90;;;;;;5027574;28;20210;-79
2022/04/09 00:15:22;;;;;;;12.10;2.83;;;6.60;99.90;;;;;;5027671;28;20194;-77
2022/04/09 00:17:48;;;;;;;19.90;4.20;;;6.70;99.90;;;;;;5028223;28;20202;-80
2022/04/09 00:20:18;;;;;;;21.80;4.63;;;6.70;99.90;;;;;;5027221;28;20227;-79
2022/04/09 00:22:45;;;;;;;14.40;2.97;;;6.80;99.90;;;;;;5026485;28;20214;-80
2022/04/09 00:25:21;;;;;;;13.00;3.20;;;6.80;99.90;;;;;;5026282;28;20247;-80
2022/04/09 00:27:48;;;;;;;13.57;3.00;;;6.90;99.90;;;;;;5026289;28;20205;-79
2022/04/09 00:30:14;;;;;;;9.90;3.10;;;6.90;99.90;;;;;;5026913;28;20214;-80
2022/04/09 00:32:41;;;;;;;11.53;2.60;;;6.90;99.90;;;;;;5026361;28;20202;-80
2022/04/09 00:35:09;;;;;;;9.97;2.57;;;6.80;99.90;;;;;;5026050;28;20232;-80
2022/04/09 00:37:42;;;;;;;12.20;2.63;;;6.80;99.90;;;;;;5026519;28;20199;-81
2022/04/09 00:40:10;;;;;;;12.67;1.87;;;6.70;99.90;;;;;;5027108;28;20253;-79
2022/04/09 00:42:39;;;;;;;10.63;2.43;;;6.70;99.90;;;;;;5025814;28;20222;-80
2022/04/09 00:45:07;;;;;;;11.70;2.77;;;6.70;99.90;;;;;;5025924;28;20573;-80
2022/04/09 00:47:35;;;;;;;24.33;3.60;;;6.70;99.90;;;;;;5029402;28;20320;-79
2022/04/09 00:50:01;;;;;;;10.77;3.00;;;6.70;99.90;;;;;;5028506;28;20203;-80
2022/04/09 00:52:32;;;;;;;12.90;3.33;;;6.70;99.90;;;;;;5026513;28;20210;-81
2022/04/09 00:55:00;;;;;;;12.13;3.13;;;6.90;99.90;;;;;;5027455;28;20777;-81
2022/04/09 00:57:28;;;;;;;15.70;2.77;;;6.90;99.90;;;;;;5026732;28;20206;-80
2022/04/09 00:59:58;;;;;;;11.43;2.20;;;6.90;99.90;;;;;;5026570;28;20206;-80
2022/04/09 01:02:24;;;;;;;12.20;2.47;;;6.80;99.90;;;;;;5027304;28;20215;-81
2022/04/09 01:04:51;;;;;;;10.47;3.13;;;6.70;99.90;;;;;;5026422;28;20301;-79
2022/04/09 01:07:19;;;;;;;11.73;2.83;;;6.80;99.90;;;;;;5026538;28;20210;-81
2022/04/09 01:09:46;;;;;;;11.10;2.17;;;6.70;99.90;;;;;;5025987;28;20226;-79
2022/04/09 01:12:15;;;;;;;14.30;3.33;;;6.80;99.90;;;;;;5025544;28;20449;-81
2022/04/09 01:14:42;;;;;;;13.20;3.03;;;6.80;99.90;;;;;;5027011;28;20211;-79
2022/04/09 01:17:10;;;;;;;11.30;1.87;;;6.80;99.90;;;;;;5026508;28;20206;-80
2022/04/09 01:19:37;;;;;;;16.30;2.50;;;6.90;99.90;;;;;;5027029;28;20620;-80
2022/04/09 01:22:05;;;;;;;11.70;2.30;;;6.90;99.90;;;;;;5026189;28;20238;-81
2022/04/09 01:24:32;;;;;;;8.17;1.43;;;6.90;99.90;;;;;;5025619;28;20597;-80
2022/04/09 01:26:59;;;;;;;8.67;2.07;;;6.90;99.90;;;;;;5028042;28;20202;-80
2022/04/09 01:29:26;;;;;;;8.20;1.73;;;6.90;99.90;;;;;;5033464;28;20206;-82
2022/04/09 01:31:53;;;;;;;10.20;2.03;;;7.00;99.90;;;;;;5033669;28;20356;-80
2022/04/09 01:34:20;;;;;;;14.10;2.90;;;7.00;99.90;;;;;;5029144;28;20240;-81
2022/04/09 01:36:47;;;;;;;10.67;2.57;;;7.00;99.90;;;;;;5031456;28;20202;-81
2022/04/09 01:39:17;;;;;;;11.17;2.67;;;7.00;99.90;;;;;;5036602;28;20225;-81
2022/04/09 01:41:44;;;;;;;15.53;2.13;;;7.00;99.90;;;;;;5037129;28;20631;-80
2022/04/09 01:44:11;;;;;;;15.77;3.10;;;7.00;99.90;;;;;;5032013;28;20206;-80
2022/04/09 01:46:41;;;;;;;14.47;2.60;;;7.00;99.90;;;;;;5032237;28;20576;-81
2022/04/09 01:49:07;;;;;;;10.40;3.43;;;7.00;99.90;;;;;;5032189;28;20747;-77
2022/04/09 01:51:34;;;;;;;10.90;2.67;;;7.00;99.90;;;;;;5035510;28;20205;-80
2022/04/09 01:54:01;;;;;;;15.87;3.03;;;7.10;99.90;;;;;;5034054;28;20297;-82
2022/04/09 01:56:29;;;;;;;16.60;3.50;;;7.10;99.90;;;;;;5031661;28;20284;-80
2022/04/09 01:58:56;;;;;;;12.90;3.40;;;7.20;99.90;;;;;;5035095;28;20216;-80
2022/04/09 02:01:23;;;;;;;14.93;3.17;;;7.20;99.90;;;;;;5031039;28;20235;-82
2022/04/09 02:03:50;;;;;;;16.13;3.53;;;7.20;99.90;;;;;;5034862;28;20299;-80
2022/04/09 02:06:17;;;;;;;14.63;3.17;;;7.30;99.90;;;;;;5038001;28;20217;-81
2022/04/09 02:08:43;;;;;;;17.10;3.70;;;7.30;99.90;;;;;;5035002;28;20228;-83
2022/04/09 02:11:10;;;;;;;18.60;3.83;;;7.40;99.90;;;;;;5034853;28;20202;-81
2022/04/09 02:13:38;;;;;;;14.37;3.53;;;7.40;99.90;;;;;;5038087;28;20305;-82
2022/04/09 02:16:05;;;;;;;13.77;3.37;;;7.40;99.90;;;;;;5042253;28;20213;-82
2022/04/09 02:18:32;;;;;;;17.33;2.83;;;7.40;99.90;;;;;;5046232;28;20205;-82
2022/04/09 02:20:59;;;;;;;26.40;5.67;;;7.50;99.90;;;;;;5038435;28;20228;-82
2022/04/09 02:23:25;;;;;;;15.73;3.50;;;7.50;99.90;;;;;;5030006;28;20218;-82
2022/04/09 02:25:52;;;;;;;10.87;2.83;;;7.40;99.90;;;;;;5030320;28;20226;-82
2022/04/09 02:28:19;;;;;;;9.97;2.63;;;7.40;99.90;;;;;;5031207;28;20213;-81
2022/04/09 02:30:47;;;;;;;13.07;2.83;;;7.40;99.90;;;;;;5046652;28;20189;-82
2022/04/09 02:33:14;;;;;;;13.77;2.60;;;7.40;99.90;;;;;;5027100;28;20906;-82
2022/04/09 02:35:41;;;;;;;11.87;2.57;;;7.40;99.90;;;;;;5027519;28;20198;-82
2022/04/09 02:38:09;;;;;;;10.77;3.23;;;7.30;99.90;;;;;;5028247;28;20904;-80
2022/04/09 02:40:36;;;;;;;10.00;2.53;;;7.30;99.90;;;;;;5027064;28;20234;-80
2022/04/09 02:43:03;;;;;;;9.10;2.17;;;7.30;99.90;;;;;;5026705;28;20194;-85
2022/04/09 02:45:30;;;;;;;5.97;2.03;;;7.10;99.90;;;;;;5028162;28;20493;-81
2022/04/09 02:47:58;;;;;;;9.83;1.83;;;6.80;99.90;;;;;;5026733;28;20209;-81
2022/04/09 02:50:25;;;;;;;11.10;1.97;;;6.60;99.90;;;;;;5025136;28;20199;-81
2022/04/09 02:52:52;;;;;;;11.53;2.70;;;6.50;99.90;;;;;;5025947;28;20217;-81
2022/04/09 02:55:19;;;;;;;11.63;2.60;;;6.50;99.90;;;;;;5025030;28;20201;-81
2022/04/09 02:57:45;;;;;;;9.80;2.43;;;6.40;99.90;;;;;;5025052;28;20613;-80
2022/04/09 03:00:13;;;;;;;16.43;2.63;;;6.40;99.90;;;;;;5026038;28;20203;-80
2022/04/09 03:02:41;;;;;;;18.07;3.47;;;6.40;99.90;;;;;;5026825;28;20783;-82
2022/04/09 03:05:10;;;;;;;14.83;3.10;;;6.50;99.90;;;;;;5028256;28;20297;-81
2022/04/09 03:07:37;;;;;;;10.40;2.33;;;6.60;99.90;;;;;;5037668;28;20213;-82
2022/04/09 03:10:04;;;;;;;11.93;2.17;;;6.60;99.90;;;;;;5047265;28;20778;-84
2022/04/09 03:12:31;;;;;;;7.10;1.73;;;6.60;99.90;;;;;;5033574;28;20210;-82
2022/04/09 03:14:58;;;;;;;11.13;2.33;;;6.50;99.90;;;;;;5026830;28;20209;-78
2022/04/09 03:17:25;;;;;;;11.90;2.10;;;6.50;99.90;;;;;;5025465;28;20195;-81
2022/04/09 03:19:52;;;;;;;10.03;2.20;;;6.40;99.90;;;;;;5025983;28;20209;-82
2022/04/09 03:22:21;;;;;;;16.40;3.53;;;6.40;99.90;;;;;;5025132;28;20231;-81
2022/04/09 03:24:48;;;;;;;15.97;2.30;;;6.40;99.90;;;;;;5024759;28;20674;-81
2022/04/09 03:27:15;;;;;;;13.90;3.53;;;6.40;99.90;;;;;;5024890;28;20195;-81
2022/04/09 03:29:42;;;;;;;12.83;4.07;;;6.40;99.90;;;;;;5026196;28;20206;-84
2022/04/09 03:32:09;;;;;;;8.73;2.50;;;6.50;99.90;;;;;;5032900;28;20209;-83
2022/04/09 03:34:36;;;;;;;12.97;1.90;;;6.50;99.90;;;;;;5045611;28;20536;-84
2022/04/09 03:37:03;;;;;;;8.30;1.70;;;6.60;99.90;;;;;;5046640;28;20214;-88
2022/04/09 03:39:32;;;;;;;4.60;1.17;;;6.60;99.90;;;;;;5046001;28;20202;-82
2022/04/09 03:41:58;;;;;;;6.77;1.90;;;6.60;99.90;;;;;;5036685;28;20257;-82
2022/04/09 03:44:25;;;;;;;5.63;1.80;;;6.60;99.90;;;;;;5030451;28;20407;-83
2022/04/09 03:46:58;;;;;;;7.57;1.93;;;6.60;99.90;;;;;;5031069;28;20199;-83
2022/04/09 03:49:25;;;;;;;11.13;2.03;;;6.60;99.90;;;;;;5031216;28;20214;-83
2022/04/09 03:51:52;;;;;;;13.50;2.23;;;6.70;99.90;;;;;;5029917;28;20619;-82
2022/04/09 03:54:18;;;;;;;11.73;2.67;;;6.60;99.90;;;;;;5027939;28;20210;-83
2022/04/09 03:56:46;;;;;;;14.57;2.90;;;6.60;99.90;;;;;;5029812;28;20222;-83
2022/04/09 03:59:13;;;;;;;12.13;2.60;;;6.70;99.90;;;;;;5030409;28;20195;-79
2022/04/09 04:01:41;;;;;;;13.80;3.27;;;6.70;99.90;;;;;;5030717;28;20241;-80
2022/04/09 04:04:09;;;;;;;10.23;2.37;;;6.70;99.90;;;;;;5031029;28;20607;-80
2022/04/09 04:06:36;;;;;;;15.47;2.80;;;6.80;99.90;;;;;;5029356;28;20202;-79
2022/04/09 04:09:03;;;;;;;19.60;2.23;;;6.80;99.90;;;;;;5030783;28;20596;-81
2022/04/09 04:11:30;;;;;;;13.37;2.80;;;6.80;99.90;;;;;;5030628;28;20209;-79
2022/04/09 04:13:58;;;;;;;8.07;2.63;;;6.80;99.90;;;;;;5030010;28;20206;-80
2022/04/09 04:16:25;;;;;;;11.67;2.50;;;6.80;99.90;;;;;;5029612;28;20203;-81
2022/04/09 04:18:52;;;;;;;10.27;2.50;;;6.90;99.90;;;;;;5027542;28;20198;-80
2022/04/09 04:21:19;;;;;;;12.70;2.60;;;6.90;99.90;;;;;;5030149;28;20234;-81
2022/04/09 04:23:46;;;;;;;10.23;2.50;;;7.00;99.90;;;;;;5033435;28;20215;-81
2022/04/09 04:26:12;;;;;;;12.80;3.07;;;7.00;99.90;;;;;;5034179;28;20195;-81
2022/04/09 04:28:39;;;;;;;15.07;2.83;;;7.00;99.90;;;;;;5046719;28;20214;-80
2022/04/09 04:31:08;;;;;;;9.00;2.40;;;7.00;99.90;;;;;;5051284;28;20198;-83
2022/04/09 04:33:36;;;;;;;16.57;2.50;;;7.00;99.90;;;;;;5052412;28;20597;-83
2022/04/09 04:36:04;;;;;;;10.40;3.10;;;7.00;99.90;;;;;;5049130;28;20206;-84
2022/04/09 04:38:31;;;;;;;12.00;2.00;;;7.00;99.90;;;;;;5049718;28;20206;-82
2022/04/09 04:40:59;;;;;;;9.37;1.80;;;6.90;99.90;;;;;;5036839;28;20208;-84
2022/04/09 04:43:25;;;;;;;10.63;2.17;;;6.80;99.90;;;;;;5029177;28;20230;-81
2022/04/09 04:45:52;;;;;;;13.53;3.50;;;6.80;99.90;;;;;;5028716;28;20217;-82
2022/04/09 04:48:21;;;;;;;16.67;2.63;;;6.70;99.90;;;;;;5038392;28;20213;-82
2022/04/09 04:50:47;;;;;;;12.20;3.03;;;6.70;99.90;;;;;;5034432;28;20310;-82
2022/04/09 04:53:14;;;;;;;9.90;2.87;;;6.70;99.90;;;;;;5028127;28;20617;-79
2022/04/09 04:55:41;;;;;;;8.67;2.07;;;6.70;99.90;;;;;;5029302;28;20211;-82
2022/04/09 04:58:08;;;;;;;14.77;2.40;;;6.70;99.90;;;;;;5029910;28;20888;-80
2022/04/09 05:00:35;;;;;;;13.90;2.90;;;6.70;99.90;;;;;;5043668;28;20300;-83
2022/04/09 05:03:02;;;;;;;13.93;1.97;;;6.70;99.90;;;;;;5046463;28;20221;-81
2022/04/09 05:05:30;;;;;;;10.43;2.23;;;6.80;99.90;;;;;;5030283;28;20516;-83
2022/04/09 05:07:57;;;;;;;2.77;0.70;;;6.80;99.90;;;;;;5031164;28;20218;-80
2022/04/09 05:10:25;;;;;;;1.03;0.77;;;6.70;99.90;;;;;;5028416;28;20547;-82
2022/04/09 05:12:54;;;;;;;2.87;0.80;;;6.60;99.90;;;;;;5028940;28;20217;-81
2022/04/09 05:15:21;;;;;;;4.00;0.80;;;6.50;99.90;;;;;;5028244;28;20502;-81
2022/04/09 05:17:47;;;;;;;2.87;0.80;;;6.50;99.90;;;;;;5027665;28;20801;-80
2022/04/09 05:20:15;;;;;;;5.87;1.10;;;6.40;99.90;;;;;;5027460;28;20209;-80
2022/04/09 05:22:46;;;;;;;7.23;2.13;;;6.40;99.90;;;;;;5027713;28;20230;-82
2022/04/09 05:25:15;;;;;;;7.93;1.53;;;6.40;99.90;;;;;;5034644;28;20217;-79
2022/04/09 05:27:43;;;;;;;8.47;2.47;;;6.50;99.90;;;;;;5048196;28;20612;-81
2022/04/09 05:30:11;;;;;;;10.87;2.20;;;6.50;99.90;;;;;;5047761;28;20245;-81
2022/04/09 05:32:39;;;;;;;10.80;2.27;;;6.60;99.90;;;;;;5046381;28;20578;-82
2022/04/09 05:35:07;;;;;;;10.97;2.90;;;6.60;99.90;;;;;;5029590;28;20247;-81
2022/04/09 05:37:33;;;;;;;16.57;3.63;;;6.70;99.90;;;;;;5047517;28;20209;-80
2022/04/09 05:40:05;;;;;;;12.63;2.20;;;6.70;99.90;;;;;;5046845;28;20205;-82
2022/04/09 05:42:32;;;;;;;9.57;1.90;;;6.80;99.90;;;;;;5047239;28;20336;-82
2022/04/09 05:44:59;;;;;;;10.00;1.83;;;6.80;99.90;;;;;;5047568;28;20202;-80
2022/04/09 05:47:26;;;;;;;11.47;2.13;;;6.90;99.90;;;;;;5037214;28;20225;-82
2022/04/09 05:49:53;;;;;;;13.17;2.93;;;7.00;99.90;;;;;;5047921;28;20202;-80
2022/04/09 05:52:20;;;;;;;16.17;2.53;;;7.10;99.90;;;;;;5047174;28;20202;-80
2022/04/09 05:54:46;;;;;;;9.53;2.43;;;7.10;99.90;;;;;;5029316;28;20202;-80
2022/04/09 05:57:15;;;;;;;13.57;2.60;;;7.20;99.90;;;;;;5027594;28;20224;-81
2022/04/09 05:59:41;;;;;;;14.40;2.70;;;7.30;99.90;;;;;;5027049;28;20211;-82
2022/04/09 06:02:09;;;;;;;9.93;2.30;;;7.40;99.90;;;;;;5027531;28;20226;-82
2022/04/09 06:04:36;;;;;;;10.70;2.60;;;7.40;99.90;;;;;;5026490;28;20215;-81
2022/04/09 06:07:03;;;;;;;9.60;2.40;;;7.40;99.90;;;;;;5027022;28;20191;-82
2022/04/09 06:09:31;;;;;;;13.03;2.67;;;7.40;99.90;;;;;;5026576;28;20257;-82
2022/04/09 06:11:58;;;;;;;13.37;2.57;;;7.50;99.90;;;;;;5027785;28;20198;-83
2022/04/09 06:14:26;;;;;;;15.30;2.50;;;7.50;99.90;;;;;;5025188;28;20627;-86
2022/04/09 06:16:53;;;;;;;8.27;2.10;;;7.50;99.90;;;;;;5027834;28;20555;-82
2022/04/09 06:19:19;;;;;;;14.27;2.10;;;7.50;99.90;;;;;;5027183;28;20924;-83
2022/04/09 06:21:46;;;;;;;12.73;2.57;;;7.60;99.90;;;;;;5026820;28;20814;-81
2022/04/09 06:24:13;;;;;;;11.77;2.80;;;7.60;99.90;;;;;;5027430;28;20610;-79
2022/04/09 06:26:40;;;;;;;18.43;3.70;;;7.60;99.90;;;;;;5028138;28;20225;-82
2022/04/09 06:29:07;;;;;;;9.13;1.93;;;7.60;99.90;;;;;;5039622;28;20521;-82
2022/04/09 06:31:35;;;;;;;16.33;2.23;;;7.50;99.90;;;;;;5047650;28;20210;-79
2022/04/09 06:34:02;;;;;;;12.60;2.17;;;7.50;99.90;;;;;;5047637;28;20237;-82
2022/04/09 06:36:29;;;;;;;14.43;2.63;;;7.50;99.90;;;;;;5046878;28;20225;-82
2022/04/09 06:38:56;;;;;;;8.80;2.27;;;7.40;99.90;;;;;;5046213;28;20490;-82
2022/04/09 06:44:58;;;;;;;10.10;2.07;;;7.50;99.90;;;;;;4976774;28;20684;-79
2022/04/09 06:47:26;;;;;;;12.00;2.47;;;7.50;99.90;;;;;;5028601;28;20221;-80
2022/04/09 06:49:53;;;;;;;11.33;2.00;;;7.60;99.90;;;;;;5045586;28;20297;-80
2022/04/09 06:52:20;;;;;;;14.97;1.97;;;7.70;99.90;;;;;;5044582;28;20372;-80
2022/04/09 06:54:47;;;;;;;10.67;2.33;;;7.80;99.90;;;;;;5040731;28;20218;-82
2022/04/09 06:57:14;;;;;;;9.47;2.10;;;7.90;99.90;;;;;;5025120;28;20207;-79
2022/04/09 07:00:47;;;;;;;7.10;1.93;;;7.80;99.90;;;;;;4982223;28;20509;-80
2022/04/09 07:03:15;;;;;;;9.40;2.13;;;7.70;99.90;;;;;;5050983;28;20223;-81
2022/04/09 07:05:42;;;;;;;7.07;1.90;;;7.50;99.90;;;;;;5046159;28;20609;-80
2022/04/09 07:08:08;;;;;;;14.97;2.67;;;7.40;99.90;;;;;;5066823;28;20228;-80
2022/04/09 07:10:36;;;;;;;7.30;2.03;;;7.40;99.90;;;;;;5044167;28;20263;-82
2022/04/09 07:13:03;;;;;;;6.53;1.93;;;7.30;99.90;;;;;;5066348;28;20223;-82
2022/04/09 07:15:30;;;;;;;5.53;1.63;;;7.30;99.90;;;;;;5059926;28;20202;-81
2022/04/09 07:17:57;;;;;;;4.60;1.00;;;7.30;99.90;;;;;;5040503;28;20201;-81
2022/04/09 07:20:25;;;;;;;6.50;1.33;;;7.20;99.90;;;;;;5051846;28;20264;-81
2022/04/09 07:22:52;;;;;;;9.73;1.40;;;7.30;99.90;;;;;;5033725;28;20313;-82
2022/04/09 07:25:23;;;;;;;11.57;2.53;;;7.30;99.90;;;;;;5030613;28;20199;-80
2022/04/09 07:27:51;;;;;;;9.20;1.70;;;7.60;99.90;;;;;;5034437;28;20246;-82
2022/04/09 07:30:20;;;;;;;3.77;1.37;;;7.80;99.90;;;;;;5030731;28;20195;-80
2022/04/09 07:32:49;;;;;;;6.73;1.40;;;8.10;99.90;;;;;;5031408;28;20226;-83
2022/04/09 07:35:16;;;;;;;3.07;0.90;;;8.10;99.90;;;;;;5011903;28;20215;-82
2022/04/09 07:37:47;;;;;;;3.43;1.10;;;8.10;99.90;;;;;;5011395;28;20199;-84
2022/04/09 07:40:16;;;;;;;4.77;1.10;;;8.20;99.90;;;;;;5012605;28;20211;-81
2022/04/09 07:42:44;;;;;;;11.47;2.00;;;8.30;99.90;;;;;;5047767;28;20222;-84
2022/04/09 07:45:12;;;;;;;7.77;1.23;;;8.20;99.90;;;;;;5023235;28;20215;-81
2022/04/09 07:47:39;;;;;;;8.33;1.40;;;8.10;99.90;;;;;;5016136;28;20199;-82
2022/04/09 07:50:10;;;;;;;10.27;2.33;;;8.00;99.90;;;;;;5013125;28;20223;-82
2022/04/09 07:52:38;;;;;;;9.67;1.87;;;8.00;99.90;;;;;;5008874;28;20222;-82
2022/04/09 07:55:07;;;;;;;9.83;1.93;;;7.90;99.90;;;;;;5011739;28;20203;-83
2022/04/09 07:57:34;;;;;;;6.57;1.77;;;7.90;99.90;;;;;;5010273;28;20203;-83
2022/04/09 08:00:01;;;;;;;8.03;2.13;;;7.90;99.90;;;;;;5021288;28;20194;-83
2022/04/09 08:02:28;;;;;;;5.03;1.30;;;7.80;99.90;;;;;;5049010;28;20245;-82
2022/04/09 08:04:55;;;;;;;4.67;1.27;;;7.70;99.90;;;;;;5051283;28;20221;-82
2022/04/09 08:07:22;;;;;;;7.57;1.53;;;7.70;99.90;;;;;;5015415;28;20623;-81
2022/04/09 08:09:48;;;;;;;7.10;1.43;;;7.60;99.90;;;;;;5011237;28;20223;-85
2022/04/09 08:12:16;;;;;;;13.13;1.60;;;7.60;99.90;;;;;;5011343;28;20203;-84
2022/04/09 08:14:45;;;;;;;5.57;1.50;;;7.80;99.90;;;;;;5011591;28;20204;-86
2022/04/09 08:17:13;;;;;;;7.10;1.40;;;7.90;99.90;;;;;;5017400;28;20246;-84
2022/04/09 08:19:40;;;;;;;8.30;1.50;;;8.10;99.90;;;;;;5009414;28;20215;-84
2022/04/09 08:22:09;;;;;;;8.73;1.30;;;8.20;99.90;;;;;;5010063;28;20222;-82
2022/04/09 08:24:37;;;;;;;9.00;1.70;;;8.50;99.90;;;;;;5009858;28;20510;-83
2022/04/09 08:27:04;;;;;;;10.10;2.17;;;8.80;99.90;;;;;;5008597;28;20203;-88
2022/04/09 08:29:32;;;;;;;9.67;1.97;;;9.00;99.90;;;;;;5009132;28;20207;-84
2022/04/09 08:32:01;;;;;;;6.33;1.60;;;9.10;99.90;;;;;;5008949;28;20838;-86
2022/04/09 08:34:29;;;;;;;7.70;1.90;;;9.10;99.90;;;;;;5022739;28;20246;-83
2022/04/09 08:36:56;;;;;;;6.83;1.60;;;9.20;99.90;;;;;;5029597;28;20203;-83
2022/04/09 08:39:23;;;;;;;8.57;1.97;;;9.20;99.90;;;;;;5044776;28;20210;-83
2022/04/09 08:41:53;;;;;;;4.73;1.67;;;9.30;99.90;;;;;;5050490;28;20209;-82
2022/04/09 08:44:21;;;;;;;8.60;1.57;;;9.50;99.90;;;;;;5044282;28;20222;-80
2022/04/09 08:46:49;;;;;;;6.60;1.50;;;9.80;99.90;;;;;;5029855;28;20206;-83
2022/04/09 08:49:16;;;;;;;5.03;2.27;;;9.90;99.90;;;;;;5044784;28;20213;-81
2022/04/09 08:51:43;;;;;;;7.53;2.20;;;10.00;99.90;;;;;;5050563;28;20249;-82
2022/04/09 08:54:11;;;;;;;7.87;1.67;;;10.10;99.90;;;;;;5033471;28;20206;-83
2022/04/09 08:56:38;;;;;;;6.77;1.87;;;10.20;99.90;;;;;;5030542;28;20202;-82
2022/04/09 08:59:05;;;;;;;11.77;2.17;;;10.20;99.90;;;;;;5032902;28;20202;-81
2022/04/09 09:01:33;;;;;;;9.07;2.10;;;10.10;99.90;;;;;;5047907;28;20201;-82
2022/04/09 09:04:02;;;;;;;8.20;1.43;;;9.90;99.90;;;;;;5047385;28;20222;-80
2022/04/09 09:06:30;;;;;;;11.73;1.40;;;9.80;99.90;;;;;;5046126;28;20293;-78
2022/04/09 09:08:58;;;;;;;9.60;2.73;;;9.80;99.90;;;;;;5035462;28;20250;-80
2022/04/09 09:11:27;;;;;;;10.30;2.17;;;9.90;99.90;;;;;;5024679;28;20497;-80
2022/04/09 09:13:55;;;;;;;6.43;1.83;;;10.20;99.90;;;;;;5025838;28;20198;-81
2022/04/09 09:16:25;;;;;;;8.13;1.87;;;10.40;99.90;;;;;;5023690;28;20198;-81
2022/04/09 09:18:54;;;;;;;5.13;1.77;;;10.50;99.90;;;;;;5026853;28;20213;-80
2022/04/09 09:21:26;;;;;;;4.83;1.63;;;10.70;99.90;;;;;;5026597;28;20206;-80
2022/04/09 09:23:53;;;;;;;9.53;2.33;;;10.70;99.90;;;;;;5023797;28;20505;-80
2022/04/09 09:26:21;;;;;;;8.90;2.00;;;10.70;99.90;;;;;;5025699;28;20205;-79
2022/04/09 09:28:56;;;;;;;8.80;1.73;;;10.80;99.90;;;;;;5026108;28;20206;-79
2022/04/09 09:31:41;;;;;;;3.57;1.77;;;10.90;99.90;;;;;;5026762;28;20237;-80
2022/04/09 09:34:10;;;;;;;5.00;1.37;;;11.00;99.90;;;;;;5028158;28;20237;-81
2022/04/09 09:36:40;;;;;;;5.67;1.40;;;10.90;99.90;;;;;;5028863;28;20642;-83
2022/04/09 09:39:08;;;;;;;8.87;2.20;;;10.70;99.90;;;;;;5028131;28;20199;-81
2022/04/09 09:41:35;;;;;;;8.50;2.13;;;10.60;99.90;;;;;;5028005;28;20211;-82
2022/04/09 09:44:03;;;;;;;9.53;2.33;;;10.70;99.90;;;;;;5030147;28;20230;-82
2022/04/09 09:46:30;;;;;;;12.57;2.30;;;10.60;99.90;;;;;;5029425;28;20209;-81
2022/04/09 09:48:57;;;;;;;11.60;2.43;;;10.50;99.90;;;;;;5030173;28;20238;-81
2022/04/09 09:51:25;;;;;;;9.97;2.20;;;10.40;99.90;;;;;;5031418;28;20206;-85
2022/04/09 09:54:04;;;;;;;12.33;2.63;;;10.10;99.90;;;;;;5033436;28;20217;-84
2022/04/09 09:56:36;;;;;;;8.40;2.10;;;9.90;99.90;;;;;;5030722;28;20202;-80
2022/04/09 09:59:05;;;;;;;9.73;2.50;;;9.50;99.90;;;;;;5033445;28;20289;-81
2022/04/09 10:01:41;;;;;;;10.13;2.10;;;9.20;99.90;;;;;;5043315;28;20577;-81
2022/04/09 10:04:11;;;;;;;13.03;2.90;;;8.80;99.90;;;;;;5043780;28;20224;-84
2022/04/09 10:06:39;;;;;;;11.33;2.20;;;8.60;99.90;;;;;;5038851;28;20229;-83
2022/04/09 10:09:09;;;;;;;10.27;2.17;;;8.70;99.90;;;;;;5036099;28;20222;-82
2022/04/09 10:11:37;;;;;;;13.57;1.80;;;8.90;99.90;;;;;;5034331;28;20206;-84
2022/04/09 10:14:05;;;;;;;9.87;1.87;;;9.10;99.90;;;;;;5029046;28;20207;-82
2022/04/09 10:16:35;;;;;;;8.93;2.13;;;9.40;99.90;;;;;;5028911;28;20207;-79
2022/04/09 10:19:04;;;;;;;6.60;1.27;;;9.50;99.90;;;;;;5029433;28;20210;-80
2022/04/09 10:21:33;;;;;;;4.47;0.90;;;9.20;99.90;;;;;;5027095;28;20202;-81
2022/04/09 10:24:02;;;;;;;6.67;2.00;;;9.00;99.90;;;;;;5028444;28;20230;-80
2022/04/09 10:26:31;;;;;;;5.87;1.93;;;8.90;99.90;;;;;;5046698;28;20617;-82
2022/04/09 10:29:05;;;;;;;8.53;1.60;;;8.70;99.90;;;;;;5047533;28;20201;-82
2022/04/09 10:31:37;;;;;;;8.13;1.63;;;8.70;99.90;;;;;;5045431;28;20284;-81
2022/04/09 10:34:07;;;;;;;3.90;1.37;;;8.50;99.90;;;;;;5044807;28;20325;-79
2022/04/09 10:37:04;;;;;;;10.93;1.80;;;8.50;99.90;;;;;;5026706;28;20210;-82
2022/04/09 10:39:47;;;;;;;8.87;1.87;;;8.50;99.90;;;;;;5027168;28;20300;-82
2022/04/09 10:42:52;;;;;;;8.40;2.40;;;8.80;99.90;;;;;;5026759;28;20210;-83
2022/04/09 10:45:19;;;;;;;11.87;2.20;;;9.00;99.90;;;;;;5026770;28;20867;-84
2022/04/09 10:48:06;;;;;;;13.87;2.30;;;9.10;99.90;;;;;;5029087;28;20293;-83
2022/04/09 10:50:55;;;;;;;7.77;2.30;;;9.20;99.90;;;;;;5028552;28;20237;-85
2022/04/09 10:53:23;;;;;;;7.23;2.00;;;9.20;99.90;;;;;;5027841;28;20218;-81
2022/04/09 10:56:12;;;;;;;7.80;1.60;;;9.20;99.90;;;;;;5027927;28;20202;-82
2022/04/09 10:59:16;;;;;;;7.30;1.77;;;9.30;99.90;;;;;;5025653;28;20210;-80
2022/04/09 11:01:54;;;;;;;7.30;1.50;;;9.50;99.90;;;;;;5015752;28;20496;-81
2022/04/09 11:04:42;;;;;;;5.87;1.37;;;9.90;99.90;;;;;;5043172;28;20241;-80
2022/04/09 11:07:11;;;;;;;9.37;1.70;;;9.90;99.90;;;;;;5049837;28;20197;-85
2022/04/09 11:09:49;;;;;;;9.70;2.20;;;9.90;99.90;;;;;;5044610;28;20514;-82
2022/04/09 11:12:18;;;;;;;9.43;2.13;;;10.00;99.90;;;;;;5029647;28;20530;-83
2022/04/09 11:14:48;;;;;;;10.83;2.03;;;10.30;99.90;;;;;;5026309;28;20314;-81
2022/04/09 11:17:30;;;;;;;11.33;1.97;;;10.40;99.90;;;;;;5027659;28;20203;-84
2022/04/09 11:20:01;;;;;;;7.77;1.53;;;10.30;99.90;;;;;;5026235;28;20195;-79
2022/04/09 11:22:35;;;;;;;7.40;1.70;;;9.70;99.90;;;;;;5028739;28;20642;-80
2022/04/09 11:25:03;;;;;;;9.43;2.03;;;9.30;99.90;;;;;;5046641;28;20274;-80
2022/04/09 11:27:30;;;;;;;9.57;1.77;;;8.90;99.90;;;;;;5045736;28;20228;-82
2022/04/09 11:29:58;;;;;;;6.10;1.57;;;8.80;99.90;;;;;;5028962;28;20816;-79
2022/04/09 11:32:27;;;;;;;5.00;1.47;;;8.70;99.90;;;;;;5025132;28;20222;-81
2022/04/09 11:34:56;;;;;;;9.47;1.60;;;8.70;99.90;;;;;;5025689;28;20242;-78
2022/04/09 11:37:26;;;;;;;5.83;1.40;;;9.10;99.90;;;;;;5039270;28;20303;-80
2022/04/09 11:39:54;;;;;;;3.33;1.10;;;9.60;99.90;;;;;;5044980;28;20228;-83
2022/04/09 11:42:21;;;;;;;5.30;1.30;;;9.60;99.90;;;;;;5045973;28;20202;-82
2022/04/09 11:44:48;;;;;;;5.57;1.30;;;9.80;99.90;;;;;;5046097;28;20338;-84
2022/04/09 11:47:17;;;;;;;5.60;1.10;;;10.00;99.90;;;;;;5045729;28;20590;-80
2022/04/09 11:49:48;;;;;;;4.13;1.10;;;10.20;99.90;;;;;;5046825;28;20205;-79
2022/04/09 11:52:25;;;;;;;3.77;1.00;;;10.30;99.90;;;;;;5024908;28;20257;-81
2022/04/09 11:54:53;;;;;;;4.67;1.20;;;10.50;99.90;;;;;;5025609;28;20195;-80
2022/04/09 11:57:20;;;;;;;2.17;0.90;;;10.60;99.90;;;;;;5025694;28;20222;-81
2022/04/09 11:59:52;;;;;;;4.23;1.20;;;10.40;99.90;;;;;;5038057;28;20543;-82
2022/04/09 12:02:24;;;;;;;5.80;1.60;;;10.50;99.90;;;;;;5045180;28;20199;-80
2022/04/09 12:04:54;;;;;;;2.17;1.10;;;10.70;99.90;;;;;;5030060;28;20230;-81
2022/04/09 12:07:22;;;;;;;5.03;1.57;;;10.70;99.90;;;;;;5031042;28;20506;-86
2022/04/09 12:09:49;;;;;;;7.03;1.60;;;10.90;99.90;;;;;;5031716;28;20774;-80
2022/04/09 12:12:19;;;;;;;8.00;1.90;;;10.90;99.90;;;;;;5031722;28;20206;-80
2022/04/09 12:14:54;;;;;;;7.97;1.70;;;11.10;99.90;;;;;;5030286;28;20902;-82
2022/04/09 12:17:22;;;;;;;8.90;2.00;;;11.10;99.90;;;;;;5029704;28;20868;-79
2022/04/09 12:19:50;;;;;;;6.73;1.60;;;11.10;99.90;;;;;;5030184;28;20195;-84
2022/04/09 12:22:20;;;;;;;8.37;1.90;;;11.30;99.90;;;;;;5031817;28;20233;-84
2022/04/09 12:24:52;;;;;;;9.17;2.60;;;11.30;99.90;;;;;;5033423;28;20214;-84
2022/04/09 12:27:19;;;;;;;6.77;1.70;;;11.00;99.90;;;;;;5032671;28;20214;-82
2022/04/09 12:29:52;;;;;;;9.90;1.80;;;10.80;99.90;;;;;;5031208;28;20210;-79
2022/04/09 12:32:23;;;;;;;9.10;2.27;;;10.40;99.90;;;;;;5036441;28;20214;-79
2022/04/09 12:34:58;;;;;;;9.50;2.00;;;10.20;99.90;;;;;;5047955;28;20546;-80
2022/04/09 12:37:27;;;;;;;8.30;2.00;;;10.20;99.90;;;;;;5027429;28;20229;-80
2022/04/09 12:40:12;;;;;;;6.50;1.73;;;10.30;99.90;;;;;;5026755;28;20211;-80
2022/04/09 12:42:39;;;;;;;7.60;2.33;;;10.30;99.90;;;;;;5026897;28;20529;-79
2022/04/09 12:45:15;;;;;;;9.17;2.20;;;10.40;99.90;;;;;;5027942;28;20238;-80
2022/04/09 12:47:42;;;;;;;10.77;2.70;;;10.30;99.90;;;;;;5031152;28;20730;-81
2022/04/09 12:50:24;;;;;;;11.87;2.07;;;10.30;99.90;;;;;;5039902;28;20218;-80
2022/04/09 12:52:52;;;;;;;3.93;1.60;;;10.40;99.90;;;;;;5028641;28;20210;-81
2022/04/09 12:55:21;;;;;;;9.10;2.53;;;10.60;99.90;;;;;;5026549;28;20218;-82
2022/04/09 12:57:48;;;;;;;8.33;2.13;;;10.70;99.90;;;;;;5033407;28;20209;-80
2022/04/09 13:00:16;;;;;;;11.20;2.60;;;10.90;99.90;;;;;;5046789;28;20210;-80
2022/04/09 13:02:44;;;;;;;5.83;1.80;;;10.90;99.90;;;;;;5047326;28;20220;-80